Time;durP1;ratioP1;P1;durP2;ratioP2;P2;SDS_P1;SDS_P2;PMS_P1;PMS_P2;Temp;Humidity;BMP_temperature;BMP_pressure;BME280_temperature;BME280_humidity;BME280_pressure;Samples;Min_cycle;Max_cycle;Signal;HPM_P1;HPM_P2
2022/09/10 00:00:53;;;;;;;8.93;6.30;;;;;;;;;;4993790;28;20227;-83
2022/09/10 00:03:22;;;;;;;9.13;7.10;;;;;;;;;;4975934;28;20329;-83
2022/09/10 00:05:50;;;;;;;12.77;8.83;;;;;;;;;;4976727;28;20265;-83
2022/09/10 00:08:19;;;;;;;11.97;8.10;;;;;;;;;;4976555;28;20217;-84
2022/09/10 00:10:50;;;;;;;9.27;6.33;;;;;;;;;;4994098;28;20198;-83
2022/09/10 00:13:20;;;;;;;13.30;8.43;;;;;;;;;;4976214;28;20227;-83
2022/09/10 00:15:50;;;;;;;8.53;7.13;;;;;;;;;;4993921;28;20202;-83
2022/09/10 00:18:20;;;;;;;5.13;3.70;;;;;;;;;;4976787;28;20207;-83
2022/09/10 00:20:50;;;;;;;9.83;6.27;;;;;;;;;;4976466;28;20203;-83
2022/09/10 00:23:20;;;;;;;12.60;6.07;;;;;;;;;;4976660;28;20290;-83
2022/09/10 00:25:50;;;;;;;11.93;8.73;;;;;;;;;;4978053;28;20217;-83
2022/09/10 00:28:19;;;;;;;12.33;8.57;;;;;;;;;;4997706;28;20262;-83
2022/09/10 00:30:48;;;;;;;13.00;10.20;;;;;;;;;;4968034;28;20212;-83
2022/09/10 00:33:18;;;;;;;16.70;10.20;;;;;;;;;;4997855;28;20246;-83
2022/09/10 00:35:46;;;;;;;20.20;13.10;;;;;;;;;;4997222;28;20223;-83
2022/09/10 00:38:17;;;;;;;18.50;14.20;;;;;;;;;;4980733;28;20203;-83
2022/09/10 00:40:46;;;;;;;15.43;11.83;;;;;;;;;;4980399;28;20219;-83
2022/09/10 00:43:17;;;;;;;17.43;12.17;;;;;;;;;;4997557;28;20226;-83
2022/09/10 00:45:48;;;;;;;21.13;15.33;;;;;;;;;;4997440;28;20230;-83
2022/09/10 00:48:18;;;;;;;19.10;12.60;;;;;;;;;;4980091;28;20265;-83
2022/09/10 00:50:48;;;;;;;17.43;9.63;;;;;;;;;;4967455;28;20287;-83
2022/09/10 00:53:19;;;;;;;19.57;13.20;;;;;;;;;;4979770;28;20277;-83
2022/09/10 00:55:49;;;;;;;8.07;5.03;;;;;;;;;;4980242;28;20290;-83
2022/09/10 00:58:21;;;;;;;19.93;12.77;;;;;;;;;;4967440;28;20303;-83
2022/09/10 01:00:49;;;;;;;13.47;9.53;;;;;;;;;;4979746;28;20251;-83
2022/09/10 01:03:18;;;;;;;11.53;6.97;;;;;;;;;;4976461;28;20228;-83
2022/09/10 01:05:52;;;;;;;13.00;8.70;;;;;;;;;;4971113;28;20207;-83
2022/09/10 01:08:20;;;;;;;17.50;8.70;;;;;;;;;;4996575;28;20203;-82
2022/09/10 01:10:54;;;;;;;11.03;5.83;;;;;;;;;;4979511;28;20294;-83
2022/09/10 01:13:32;;;;;;;14.77;8.47;;;;;;;;;;4979561;28;20258;-83
2022/09/10 01:16:07;;;;;;;4.53;2.63;;;;;;;;;;4996629;28;20215;-83
2022/09/10 01:18:41;;;;;;;10.50;6.53;;;;;;;;;;4997056;28;20198;-83
2022/09/10 01:21:13;;;;;;;9.20;6.40;;;;;;;;;;4979483;28;20284;-83
2022/09/10 01:24:07;;;;;;;4.63;3.00;;;;;;;;;;4969485;28;20199;-83
2022/09/10 01:26:48;;;;;;;1.57;1.47;;;;;;;;;;4960372;28;20205;-83
2022/09/10 01:29:21;;;;;;;6.30;3.50;;;;;;;;;;4976199;28;20290;-83
2022/09/10 01:31:52;;;;;;;8.30;4.67;;;;;;;;;;4996606;28;20217;-83
2022/09/10 01:34:22;;;;;;;7.17;5.20;;;;;;;;;;4979142;28;20216;-83
2022/09/10 01:36:54;;;;;;;0.33;0.33;;;;;;;;;;4978328;28;20199;-83
2022/09/10 01:39:24;;;;;;;6.00;2.30;;;;;;;;;;4979251;28;20215;-83
2022/09/10 01:41:53;;;;;;;0.67;0.67;;;;;;;;;;4978808;28;20204;-83
2022/09/10 01:44:40;;;;;;;0.30;0.30;;;;;;;;;;4966770;28;20210;-83
2022/09/10 01:47:14;;;;;;;2.20;2.10;;;;;;;;;;4975946;28;20270;-84
2022/09/10 01:49:48;;;;;;;1.70;1.33;;;;;;;;;;4971032;28;20208;-83
2022/09/10 01:52:24;;;;;;;1.03;1.03;;;;;;;;;;4979075;28;20210;-83
2022/09/10 01:55:00;;;;;;;0.40;0.40;;;;;;;;;;4978901;28;20223;-83
2022/09/10 01:57:32;;;;;;;1.83;0.97;;;;;;;;;;4979026;28;20208;-83
2022/09/10 02:00:05;;;;;;;3.77;3.47;;;;;;;;;;4978958;28;20208;-83
2022/09/10 02:02:38;;;;;;;0.40;0.40;;;;;;;;;;4978949;28;20280;-83
2022/09/10 02:05:07;;;;;;;2.67;2.47;;;;;;;;;;4995996;28;20252;-83
2022/09/10 02:07:36;;;;;;;6.87;3.87;;;;;;;;;;4967595;28;20231;-83
2022/09/10 02:10:05;;;;;;;6.97;4.43;;;;;;;;;;4978016;28;20194;-83
2022/09/10 02:12:35;;;;;;;7.00;4.77;;;;;;;;;;4978913;28;20207;-83
2022/09/10 02:15:03;;;;;;;5.00;3.30;;;;;;;;;;4972258;28;20237;-83
2022/09/10 02:17:33;;;;;;;0.40;0.40;;;;;;;;;;4972692;28;20218;-83
2022/09/10 02:20:05;;;;;;;8.00;4.90;;;;;;;;;;4971292;28;20253;-83
2022/09/10 02:22:35;;;;;;;5.80;2.93;;;;;;;;;;4983278;28;20323;-83
2022/09/10 02:25:03;;;;;;;2.53;1.90;;;;;;;;;;4977958;28;20218;-83
2022/09/10 02:27:32;;;;;;;0.40;0.40;;;;;;;;;;4977597;28;20295;-83
2022/09/10 02:30:00;;;;;;;0.40;0.40;;;;;;;;;;4978724;28;20257;-83
2022/09/10 02:32:28;;;;;;;4.10;2.63;;;;;;;;;;4978268;28;20275;-83
2022/09/10 02:34:57;;;;;;;2.93;2.77;;;;;;;;;;4978268;28;20243;-83
2022/09/10 02:37:27;;;;;;;1.53;1.43;;;;;;;;;;4978270;28;20231;-83
2022/09/10 02:39:55;;;;;;;4.10;3.73;;;;;;;;;;4995297;28;20202;-83
2022/09/10 02:42:25;;;;;;;3.33;3.00;;;;;;;;;;4965651;28;20229;-83
2022/09/10 02:44:53;;;;;;;24.17;4.33;;;;;;;;;;4977955;28;20208;-83
2022/09/10 02:47:21;;;;;;;1.90;1.80;;;;;;;;;;4977884;28;20250;-83
2022/09/10 02:49:50;;;;;;;1.37;1.27;;;;;;;;;;4964955;28;20204;-83
2022/09/10 02:52:18;;;;;;;2.27;1.93;;;;;;;;;;4978184;28;20214;-83
2022/09/10 02:54:49;;;;;;;3.97;3.67;;;;;;;;;;4977672;28;20219;-83
2022/09/10 02:57:17;;;;;;;5.07;3.80;;;;;;;;;;4994436;28;20206;-83
2022/09/10 02:59:45;;;;;;;2.53;2.43;;;;;;;;;;4994750;28;20266;-81
2022/09/10 03:02:14;;;;;;;2.20;1.80;;;;;;;;;;4991803;28;20240;-82
2022/09/10 03:04:42;;;;;;;3.97;3.67;;;;;;;;;;4967975;28;20230;-82
2022/09/10 03:07:11;;;;;;;6.27;4.50;;;;;;;;;;4977573;28;20289;-81
2022/09/10 03:09:39;;;;;;;8.43;4.87;;;;;;;;;;4977514;28;20264;-81
2022/09/10 03:12:09;;;;;;;8.57;4.40;;;;;;;;;;4994648;28;20200;-82
2022/09/10 03:14:38;;;;;;;2.27;2.07;;;;;;;;;;4977332;28;20266;-82
2022/09/10 03:17:06;;;;;;;3.57;2.77;;;;;;;;;;4994560;28;20204;-82
2022/09/10 03:19:34;;;;;;;0.93;0.93;;;;;;;;;;4965189;28;20223;-81
2022/09/10 03:22:03;;;;;;;1.60;1.50;;;;;;;;;;4994309;28;20208;-82
2022/09/10 03:24:31;;;;;;;4.90;4.40;;;;;;;;;;4977380;28;20227;-80
2022/09/10 03:26:59;;;;;;;3.60;3.30;;;;;;;;;;4977048;28;20235;-80
2022/09/10 03:29:29;;;;;;;5.20;3.90;;;;;;;;;;4977178;28;20200;-82
2022/09/10 03:31:58;;;;;;;6.03;5.40;;;;;;;;;;4993719;28;20286;-82
2022/09/10 03:34:26;;;;;;;5.10;4.43;;;;;;;;;;4977180;28;20314;-82
2022/09/10 03:36:55;;;;;;;5.60;3.60;;;;;;;;;;4977177;28;20308;-80
2022/09/10 03:39:23;;;;;;;0.60;0.60;;;;;;;;;;4977002;28;20302;-80
2022/09/10 03:41:52;;;;;;;2.73;2.43;;;;;;;;;;4994070;28;20274;-82
2022/09/10 03:44:20;;;;;;;6.53;4.37;;;;;;;;;;4976843;28;20223;-80
2022/09/10 03:46:50;;;;;;;3.20;2.90;;;;;;;;;;4976917;28;20218;-80
2022/09/10 03:49:19;;;;;;;3.67;3.20;;;;;;;;;;4977051;28;20212;-80
2022/09/10 03:51:47;;;;;;;0.63;0.63;;;;;;;;;;4976952;28;20211;-80
2022/09/10 03:54:15;;;;;;;1.10;1.10;;;;;;;;;;4976553;28;20228;-80
2022/09/10 03:56:44;;;;;;;4.37;3.97;;;;;;;;;;4994217;28;20239;-80
2022/09/10 03:59:13;;;;;;;2.07;1.97;;;;;;;;;;4980766;28;20203;-80
2022/09/10 04:01:42;;;;;;;5.20;4.00;;;;;;;;;;4975996;28;20234;-80
2022/09/10 04:04:13;;;;;;;4.57;4.27;;;;;;;;;;4993653;28;20243;-80
2022/09/10 04:06:43;;;;;;;3.53;3.27;;;;;;;;;;4977043;28;20210;-80
2022/09/10 04:09:11;;;;;;;2.80;2.60;;;;;;;;;;4976991;28;20200;-80
2022/09/10 04:11:40;;;;;;;4.63;4.33;;;;;;;;;;4977146;28;20239;-80
2022/09/10 04:14:08;;;;;;;4.07;3.67;;;;;;;;;;4976242;28;20296;-80
2022/09/10 04:16:37;;;;;;;3.40;2.93;;;;;;;;;;4976441;28;20227;-80
2022/09/10 04:19:05;;;;;;;5.37;3.73;;;;;;;;;;4993742;28;20204;-80
2022/09/10 04:21:35;;;;;;;3.43;3.17;;;;;;;;;;4993739;28;20198;-80
2022/09/10 04:24:04;;;;;;;5.63;4.23;;;;;;;;;;4994026;28;20206;-80
2022/09/10 04:26:32;;;;;;;2.90;2.60;;;;;;;;;;4993755;28;20286;-80
2022/09/10 04:29:00;;;;;;;1.03;1.03;;;;;;;;;;4976634;28;20195;-80
2022/09/10 04:31:28;;;;;;;2.97;2.60;;;;;;;;;;4975736;28;20266;-80
2022/09/10 04:34:00;;;;;;;4.17;3.80;;;;;;;;;;4976751;28;20204;-80
2022/09/10 04:36:29;;;;;;;4.03;3.30;;;;;;;;;;4976354;28;20219;-80
2022/09/10 04:38:58;;;;;;;4.67;4.27;;;;;;;;;;4976454;28;20233;-80
2022/09/10 04:41:27;;;;;;;1.17;1.17;;;;;;;;;;4976472;28;20211;-80
2022/09/10 04:43:55;;;;;;;1.93;1.83;;;;;;;;;;4993607;28;20242;-81
2022/09/10 04:46:23;;;;;;;1.13;1.13;;;;;;;;;;4981964;28;20202;-81
2022/09/10 04:48:53;;;;;;;1.13;1.10;;;;;;;;;;5000379;28;20235;-81
2022/09/10 04:51:21;;;;;;;4.67;1.67;;;;;;;;;;4993049;28;20259;-81
2022/09/10 04:53:49;;;;;;;0.30;0.30;;;;;;;;;;4976042;28;20270;-81
2022/09/10 04:56:19;;;;;;;0.73;0.73;;;;;;;;;;4993324;28;20214;-81
2022/09/10 04:58:48;;;;;;;1.40;1.07;;;;;;;;;;4975693;28;20255;-81
2022/09/10 05:01:16;;;;;;;6.37;4.97;;;;;;;;;;4968893;28;20229;-81
2022/09/10 05:03:45;;;;;;;0.60;0.60;;;;;;;;;;4970991;28;20251;-81
2022/09/10 05:06:13;;;;;;;0.67;0.67;;;;;;;;;;4968209;28;20232;-81
2022/09/10 05:08:42;;;;;;;1.30;1.20;;;;;;;;;;4972182;28;20232;-81
2022/09/10 05:11:10;;;;;;;4.27;3.90;;;;;;;;;;4976259;28;20250;-81
2022/09/10 05:13:41;;;;;;;7.00;4.53;;;;;;;;;;4964355;28;20258;-81
2022/09/10 05:16:09;;;;;;;8.13;7.27;;;;;;;;;;4970518;28;20248;-81
2022/09/10 05:18:38;;;;;;;3.53;3.33;;;;;;;;;;4996371;28;20206;-81
2022/09/10 05:21:07;;;;;;;1.23;1.23;;;;;;;;;;4979778;28;20303;-81
2022/09/10 05:23:40;;;;;;;8.53;4.23;;;;;;;;;;4996260;28;20222;-81
2022/09/10 05:26:09;;;;;;;11.43;5.47;;;;;;;;;;4996674;28;20287;-82
2022/09/10 05:28:39;;;;;;;4.13;3.73;;;;;;;;;;4979389;28;20296;-82
2022/09/10 05:31:08;;;;;;;0.73;0.73;;;;;;;;;;4979514;28;20200;-82
2022/09/10 05:33:39;;;;;;;5.53;2.93;;;;;;;;;;4967149;28;20278;-81
2022/09/10 05:36:09;;;;;;;1.90;1.80;;;;;;;;;;4979415;28;20289;-82
2022/09/10 05:38:38;;;;;;;1.00;1.00;;;;;;;;;;4996971;28;20239;-82
2022/09/10 05:41:10;;;;;;;3.30;3.00;;;;;;;;;;4979210;28;20226;-81
2022/09/10 05:43:40;;;;;;;5.97;3.83;;;;;;;;;;4996468;28;20215;-81
2022/09/10 05:46:09;;;;;;;1.57;1.47;;;;;;;;;;4978982;28;20198;-81
2022/09/10 05:48:38;;;;;;;0.70;0.70;;;;;;;;;;4975685;28;20203;-81
2022/09/10 05:51:09;;;;;;;2.60;2.40;;;;;;;;;;4989862;28;20244;-81
2022/09/10 05:53:37;;;;;;;3.00;2.80;;;;;;;;;;4971358;28;20208;-81
2022/09/10 05:56:06;;;;;;;1.40;1.03;;;;;;;;;;4979045;28;20285;-81
2022/09/10 05:58:34;;;;;;;3.87;3.53;;;;;;;;;;4996419;28;20212;-81
2022/09/10 06:01:04;;;;;;;5.20;2.93;;;;;;;;;;4996116;28;20245;-81
2022/09/10 06:03:33;;;;;;;3.93;2.40;;;;;;;;;;4995971;28;20266;-81
2022/09/10 06:06:01;;;;;;;4.07;3.67;;;;;;;;;;4996097;28;20258;-81
2022/09/10 06:08:30;;;;;;;6.17;4.53;;;;;;;;;;4995686;28;20200;-81
2022/09/10 06:10:59;;;;;;;3.87;3.37;;;;;;;;;;4978427;28;20196;-81
2022/09/10 06:13:27;;;;;;;0.80;0.80;;;;;;;;;;4978322;28;20268;-82
2022/09/10 06:15:56;;;;;;;1.23;1.23;;;;;;;;;;4978281;28;20310;-81
2022/09/10 06:18:26;;;;;;;1.17;1.17;;;;;;;;;;4978928;28;20199;-81
2022/09/10 06:21:01;;;;;;;2.73;2.53;;;;;;;;;;4978491;28;20273;-81
2022/09/10 06:23:30;;;;;;;0.40;0.40;;;;;;;;;;4977527;28;20249;-81
2022/09/10 06:26:03;;;;;;;3.47;1.30;;;;;;;;;;4968614;28;20195;-81
2022/09/10 06:28:32;;;;;;;4.60;4.13;;;;;;;;;;4994787;28;20271;-81
2022/09/10 06:31:03;;;;;;;1.43;1.43;;;;;;;;;;4978322;28;20204;-81
2022/09/10 06:33:33;;;;;;;3.77;3.47;;;;;;;;;;4978262;28;20299;-81
2022/09/10 06:36:02;;;;;;;3.70;2.77;;;;;;;;;;4977863;28;20209;-81
2022/09/10 06:38:32;;;;;;;6.27;5.87;;;;;;;;;;4978236;28;20265;-81
2022/09/10 06:41:01;;;;;;;4.67;2.77;;;;;;;;;;4978162;28;20200;-81
2022/09/10 06:43:35;;;;;;;4.10;2.33;;;;;;;;;;4978210;28;20216;-82
2022/09/10 06:46:05;;;;;;;2.87;2.60;;;;;;;;;;4978186;28;20201;-82
2022/09/10 06:48:38;;;;;;;3.47;3.20;;;;;;;;;;4978155;28;20242;-81
2022/09/10 06:51:13;;;;;;;4.53;4.13;;;;;;;;;;4995025;28;20201;-82
2022/09/10 06:53:42;;;;;;;8.43;5.77;;;;;;;;;;4977982;28;20258;-81
2022/09/10 06:56:12;;;;;;;4.67;4.07;;;;;;;;;;4977821;28;20291;-81
2022/09/10 06:58:40;;;;;;;1.40;1.40;;;;;;;;;;4977988;28;20213;-81
2022/09/10 07:01:09;;;;;;;6.13;5.53;;;;;;;;;;4977828;28;20244;-81
2022/09/10 07:03:42;;;;;;;4.43;2.57;;;;;;;;;;4994588;28;20232;-81
2022/09/10 07:06:12;;;;;;;6.30;5.13;;;;;;;;;;4994783;28;20287;-81
2022/09/10 07:08:41;;;;;;;5.97;4.50;;;;;;;;;;4978019;28;20224;-80
2022/09/10 07:11:11;;;;;;;4.73;3.60;;;;;;;;;;4977465;28;20287;-80
2022/09/10 07:13:40;;;;;;;3.67;3.30;;;;;;;;;;4977631;28;20219;-80
2022/09/10 07:16:08;;;;;;;4.50;4.10;;;;;;;;;;4994506;28;20204;-80
2022/09/10 07:18:37;;;;;;;4.83;4.43;;;;;;;;;;4977369;28;20196;-81
2022/09/10 07:21:11;;;;;;;7.37;5.50;;;;;;;;;;4977192;28;20192;-80
2022/09/10 07:23:40;;;;;;;3.77;3.47;;;;;;;;;;4977708;28;20228;-80
2022/09/10 07:26:10;;;;;;;3.87;3.63;;;;;;;;;;4977237;28;20254;-80
2022/09/10 07:28:39;;;;;;;2.77;1.83;;;;;;;;;;4977267;28;20200;-80
2022/09/10 07:31:15;;;;;;;5.17;3.60;;;;;;;;;;4976895;28;20204;-80
2022/09/10 07:33:44;;;;;;;3.47;3.20;;;;;;;;;;4982230;28;20204;-81
2022/09/10 07:36:14;;;;;;;1.07;1.07;;;;;;;;;;4977139;28;20201;-80
2022/09/10 07:38:43;;;;;;;0.93;0.93;;;;;;;;;;4976887;28;20294;-80
2022/09/10 07:41:12;;;;;;;6.17;5.30;;;;;;;;;;4977165;28;20196;-80
2022/09/10 07:43:41;;;;;;;1.73;1.60;;;;;;;;;;4977091;28;20266;-80
2022/09/10 07:46:12;;;;;;;5.67;3.87;;;;;;;;;;4976887;28;20200;-80
2022/09/10 07:48:40;;;;;;;9.33;6.33;;;;;;;;;;4977329;28;20209;-79
2022/09/10 07:51:10;;;;;;;4.63;3.67;;;;;;;;;;4976795;28;20258;-80
2022/09/10 07:53:40;;;;;;;2.13;1.93;;;;;;;;;;4976923;28;20235;-80
2022/09/10 07:56:17;;;;;;;1.73;1.63;;;;;;;;;;4970682;28;20209;-80
2022/09/10 07:58:46;;;;;;;3.03;2.83;;;;;;;;;;4984462;28;20264;-80
2022/09/10 08:01:14;;;;;;;3.20;2.93;;;;;;;;;;4976991;28;20247;-81
2022/09/10 08:03:43;;;;;;;4.07;3.63;;;;;;;;;;4976679;28;20303;-80
2022/09/10 08:06:12;;;;;;;3.30;3.10;;;;;;;;;;4976725;28;20185;-80
2022/09/10 08:08:42;;;;;;;3.90;3.23;;;;;;;;;;4993751;28;20196;-81
2022/09/10 08:11:12;;;;;;;2.47;2.27;;;;;;;;;;4976658;28;20197;-80
2022/09/10 08:13:41;;;;;;;7.30;5.13;;;;;;;;;;4993268;28;20199;-81
2022/09/10 08:16:11;;;;;;;3.97;3.20;;;;;;;;;;4976775;28;20287;-81
2022/09/10 08:18:39;;;;;;;3.60;2.83;;;;;;;;;;4992721;28;20227;-81
2022/09/10 08:21:09;;;;;;;5.53;4.10;;;;;;;;;;4993774;28;20263;-80
2022/09/10 08:23:38;;;;;;;3.23;2.80;;;;;;;;;;4982003;28;20205;-81
2022/09/10 08:26:08;;;;;;;3.10;2.30;;;;;;;;;;4994039;28;20206;-81
2022/09/10 08:28:37;;;;;;;4.40;3.43;;;;;;;;;;4992902;28;20209;-81
2022/09/10 08:31:07;;;;;;;1.97;1.87;;;;;;;;;;4976609;28;20200;-81
2022/09/10 08:33:37;;;;;;;5.27;3.27;;;;;;;;;;4964288;28;20215;-81
2022/09/10 08:36:06;;;;;;;1.70;1.60;;;;;;;;;;4980564;28;20202;-81
2022/09/10 08:38:35;;;;;;;4.07;3.10;;;;;;;;;;4993684;28;20280;-81
2022/09/10 08:41:12;;;;;;;4.53;3.60;;;;;;;;;;4993197;28;20206;-81
2022/09/10 08:43:43;;;;;;;2.07;1.97;;;;;;;;;;4976469;28;20209;-81
2022/09/10 08:46:15;;;;;;;4.90;3.00;;;;;;;;;;4993832;28;20291;-81
2022/09/10 08:48:44;;;;;;;4.57;3.60;;;;;;;;;;4980555;28;20231;-83
2022/09/10 08:51:15;;;;;;;2.47;2.27;;;;;;;;;;4997393;28;20225;-83
2022/09/10 08:53:46;;;;;;;3.47;3.20;;;;;;;;;;4980334;28;20211;-83
2022/09/10 08:56:17;;;;;;;4.90;3.17;;;;;;;;;;4973824;28;20219;-84
2022/09/10 08:58:47;;;;;;;4.10;3.70;;;;;;;;;;4974853;28;20282;-83
2022/09/10 09:01:22;;;;;;;5.40;3.03;;;;;;;;;;4979833;28;20312;-83
2022/09/10 09:03:52;;;;;;;2.10;1.63;;;;;;;;;;4979432;28;20268;-83
2022/09/10 09:06:24;;;;;;;3.67;3.37;;;;;;;;;;4980224;28;20208;-83
2022/09/10 09:08:54;;;;;;;1.33;1.23;;;;;;;;;;4979471;28;20254;-83
2022/09/10 09:11:26;;;;;;;3.47;3.10;;;;;;;;;;4997041;28;20275;-83
2022/09/10 09:13:58;;;;;;;4.07;1.50;;;;;;;;;;4980196;28;20293;-83
2022/09/10 09:16:32;;;;;;;7.33;3.17;;;;;;;;;;4978911;28;20340;-83
2022/09/10 09:19:14;;;;;;;5.93;3.10;;;;;;;;;;4968026;28;20242;-83
2022/09/10 09:21:51;;;;;;;2.00;1.90;;;;;;;;;;4979457;28;20288;-83
2022/09/10 09:24:24;;;;;;;3.67;2.83;;;;;;;;;;4979427;28;20254;-83
2022/09/10 09:26:56;;;;;;;2.40;2.20;;;;;;;;;;4966929;28;20228;-83
2022/09/10 09:29:26;;;;;;;1.53;1.43;;;;;;;;;;4996782;28;20230;-83
2022/09/10 09:31:58;;;;;;;6.73;2.47;;;;;;;;;;4979409;28;20208;-83
2022/09/10 09:34:32;;;;;;;2.83;2.17;;;;;;;;;;4979950;28;20238;-82
2022/09/10 09:37:02;;;;;;;2.73;2.53;;;;;;;;;;4979413;28;20224;-83
2022/09/10 09:39:33;;;;;;;4.17;3.27;;;;;;;;;;4979017;28;20278;-83
2022/09/10 09:42:06;;;;;;;5.07;3.17;;;;;;;;;;4996166;28;20262;-83
2022/09/10 09:44:37;;;;;;;4.80;3.97;;;;;;;;;;4996568;28;20199;-83
2022/09/10 09:47:06;;;;;;;5.10;3.67;;;;;;;;;;4996491;28;20266;-83
2022/09/10 09:49:34;;;;;;;4.27;3.87;;;;;;;;;;4996398;28;20229;-83
2022/09/10 09:52:03;;;;;;;5.20;2.20;;;;;;;;;;4979227;28;20235;-83
2022/09/10 09:54:33;;;;;;;3.67;3.37;;;;;;;;;;4978967;28;20196;-83
2022/09/10 09:57:23;;;;;;;5.33;3.30;;;;;;;;;;4976556;28;20217;-83
2022/09/10 09:59:51;;;;;;;3.73;2.60;;;;;;;;;;4968372;28;20266;-83
2022/09/10 10:02:21;;;;;;;4.93;3.27;;;;;;;;;;4983871;28;20234;-83
2022/09/10 10:04:59;;;;;;;3.73;3.40;;;;;;;;;;4978962;28;20239;-83
2022/09/10 10:07:30;;;;;;;4.07;3.20;;;;;;;;;;4978350;28;20312;-83
2022/09/10 10:10:00;;;;;;;5.17;3.00;;;;;;;;;;4966977;28;20287;-83
2022/09/10 10:12:32;;;;;;;3.70;2.97;;;;;;;;;;4979194;28;20198;-83
2022/09/10 10:15:01;;;;;;;3.43;3.13;;;;;;;;;;4996166;28;20258;-83
2022/09/10 10:17:37;;;;;;;3.70;3.43;;;;;;;;;;4979182;28;20265;-84
2022/09/10 10:20:07;;;;;;;3.00;1.37;;;;;;;;;;4976014;28;20231;-83
2022/09/10 10:22:36;;;;;;;2.73;2.33;;;;;;;;;;4969152;28;20196;-84
2022/09/10 10:25:06;;;;;;;2.73;1.90;;;;;;;;;;4974608;28;20330;-83
2022/09/10 10:27:37;;;;;;;1.57;1.47;;;;;;;;;;4970714;28;20296;-84
2022/09/10 10:30:13;;;;;;;5.33;3.43;;;;;;;;;;4966104;28;20224;-83
2022/09/10 10:32:43;;;;;;;1.23;0.93;;;;;;;;;;4978098;28;20203;-83
2022/09/10 10:35:43;;;;;;;3.87;2.20;;;;;;;;;;4965892;28;20205;-83
2022/09/10 10:38:35;;;;;;;1.43;1.33;;;;;;;;;;4978314;28;20202;-83
2022/09/10 10:41:10;;;;;;;1.93;1.60;;;;;;;;;;4978204;28;20232;-83
2022/09/10 10:43:47;;;;;;;2.33;2.17;;;;;;;;;;4968501;28;20204;-83
2022/09/10 10:46:18;;;;;;;12.80;2.43;;;;;;;;;;4976178;28;20215;-83
2022/09/10 10:48:56;;;;;;;1.70;1.60;;;;;;;;;;4995302;28;20256;-83
2022/09/10 10:51:32;;;;;;;2.50;2.03;;;;;;;;;;4965931;28;20198;-83
2022/09/10 10:54:07;;;;;;;0.97;0.97;;;;;;;;;;4977801;28;20224;-83
2022/09/10 10:56:37;;;;;;;1.63;1.53;;;;;;;;;;4978005;28;20231;-84
2022/09/10 10:59:16;;;;;;;1.23;1.13;;;;;;;;;;4977592;28;20218;-83
2022/09/10 11:01:47;;;;;;;2.10;2.00;;;;;;;;;;4995012;28;20280;-84
2022/09/10 11:04:24;;;;;;;1.70;1.60;;;;;;;;;;4977862;28;20239;-83
2022/09/10 11:06:56;;;;;;;1.40;1.30;;;;;;;;;;4977721;28;20201;-84
2022/09/10 11:09:26;;;;;;;1.40;1.30;;;;;;;;;;4977457;28;20261;-84
2022/09/10 11:11:57;;;;;;;2.63;2.10;;;;;;;;;;4977407;28;20250;-84
2022/09/10 11:14:29;;;;;;;1.40;1.33;;;;;;;;;;4977663;28;20207;-84
2022/09/10 11:17:00;;;;;;;1.80;1.63;;;;;;;;;;4977674;28;20221;-84
2022/09/10 11:19:34;;;;;;;3.30;3.00;;;;;;;;;;4977338;28;20229;-84
2022/09/10 11:22:05;;;;;;;2.33;2.10;;;;;;;;;;4977427;28;20199;-84
2022/09/10 11:24:35;;;;;;;0.83;0.83;;;;;;;;;;4977135;28;20211;-84
2022/09/10 11:27:06;;;;;;;3.20;1.60;;;;;;;;;;4994397;28;20268;-84
2022/09/10 11:29:40;;;;;;;1.10;1.00;;;;;;;;;;4976944;28;20214;-83
2022/09/10 11:32:13;;;;;;;1.83;1.27;;;;;;;;;;4983370;28;20200;-84
2022/09/10 11:34:47;;;;;;;5.37;3.33;;;;;;;;;;4977152;28;20208;-83
2022/09/10 11:37:18;;;;;;;1.50;1.40;;;;;;;;;;4977341;28;20219;-84
2022/09/10 11:39:48;;;;;;;0.90;0.90;;;;;;;;;;4994133;28;20300;-83
2022/09/10 11:42:19;;;;;;;2.37;1.47;;;;;;;;;;4976910;28;20248;-84
2022/09/10 11:44:54;;;;;;;1.43;1.33;;;;;;;;;;4981027;28;20228;-83
2022/09/10 11:47:25;;;;;;;0.90;0.90;;;;;;;;;;4977049;28;20304;-84
2022/09/10 11:49:57;;;;;;;1.30;1.23;;;;;;;;;;4994335;28;20206;-84
2022/09/10 11:52:26;;;;;;;1.00;1.00;;;;;;;;;;4976503;28;20203;-84
2022/09/10 11:54:54;;;;;;;0.60;0.60;;;;;;;;;;4994553;28;20196;-84
2022/09/10 11:57:28;;;;;;;2.80;1.20;;;;;;;;;;4993811;28;20242;-84
2022/09/10 12:00:05;;;;;;;1.70;0.63;;;;;;;;;;4994144;28;20226;-84
2022/09/10 12:02:51;;;;;;;1.30;1.03;;;;;;;;;;4993873;28;20237;-84
2022/09/10 12:05:23;;;;;;;0.57;0.57;;;;;;;;;;4993446;28;20246;-83
2022/09/10 12:07:57;;;;;;;1.57;1.47;;;;;;;;;;4976255;28;20255;-84
2022/09/10 12:10:31;;;;;;;2.00;1.80;;;;;;;;;;4976399;28;20215;-84
2022/09/10 12:12:59;;;;;;;0.57;0.57;;;;;;;;;;4976684;28;20269;-84
2022/09/10 12:15:32;;;;;;;1.97;1.23;;;;;;;;;;4976704;28;20228;-84
2022/09/10 12:18:03;;;;;;;1.17;1.07;;;;;;;;;;4976216;28;20308;-84
2022/09/10 12:20:33;;;;;;;1.20;1.20;;;;;;;;;;4964207;28;20243;-84
2022/09/10 12:23:01;;;;;;;1.17;1.17;;;;;;;;;;4975890;28;20211;-84
2022/09/10 12:25:31;;;;;;;0.80;0.80;;;;;;;;;;4976629;28;20208;-84
2022/09/10 12:28:04;;;;;;;2.27;1.00;;;;;;;;;;4976449;28;20227;-84
2022/09/10 12:30:59;;;;;;;0.83;0.83;;;;;;;;;;4993862;28;20204;-84
2022/09/10 12:33:58;;;;;;;2.77;1.40;;;;;;;;;;4993283;28;20223;-84
2022/09/10 12:36:45;;;;;;;1.20;1.20;;;;;;;;;;4976349;28;20207;-84
2022/09/10 12:39:22;;;;;;;1.13;1.10;;;;;;;;;;4976168;28;20291;-84
2022/09/10 12:41:58;;;;;;;1.07;1.03;;;;;;;;;;4962666;28;20211;-84
2022/09/10 12:44:28;;;;;;;2.70;2.27;;;;;;;;;;4973024;28;20200;-84
2022/09/10 12:47:12;;;;;;;2.00;1.80;;;;;;;;;;4993572;28;20207;-84
2022/09/10 12:49:45;;;;;;;0.70;0.70;;;;;;;;;;4975688;28;20293;-84
2022/09/10 12:52:15;;;;;;;0.80;0.80;;;;;;;;;;4976181;28;20219;-84
2022/09/10 12:54:51;;;;;;;1.90;1.67;;;;;;;;;;4976365;28;20231;-84
2022/09/10 12:57:38;;;;;;;3.97;1.13;;;;;;;;;;4976270;28;20209;-84
2022/09/10 13:00:24;;;;;;;1.27;1.27;;;;;;;;;;4976449;28;20216;-84
2022/09/10 13:02:57;;;;;;;1.73;1.63;;;;;;;;;;4993800;28;20254;-84
2022/09/10 13:05:30;;;;;;;1.60;1.50;;;;;;;;;;4976153;28;20204;-84
2022/09/10 13:08:10;;;;;;;0.97;0.97;;;;;;;;;;4976225;28;20223;-84
2022/09/10 13:10:41;;;;;;;1.30;1.20;;;;;;;;;;4976270;28;20192;-84
2022/09/10 13:13:24;;;;;;;1.60;1.50;;;;;;;;;;4976010;28;20239;-84
2022/09/10 13:15:53;;;;;;;2.33;1.60;;;;;;;;;;4982194;28;20207;-84
2022/09/10 13:18:24;;;;;;;0.60;0.60;;;;;;;;;;4993165;28;20209;-85
2022/09/10 13:20:52;;;;;;;1.20;1.17;;;;;;;;;;4975991;28;20220;-84
2022/09/10 13:23:22;;;;;;;1.67;1.57;;;;;;;;;;4975757;28;20238;-84
2022/09/10 13:25:52;;;;;;;2.00;1.80;;;;;;;;;;4976146;28;20206;-84
2022/09/10 13:28:41;;;;;;;3.90;1.70;;;;;;;;;;4976002;28;20215;-84
2022/09/10 13:31:12;;;;;;;1.20;1.13;;;;;;;;;;4992428;28;20286;-84
2022/09/10 13:33:47;;;;;;;1.40;1.30;;;;;;;;;;4983696;28;20197;-84
2022/09/10 13:36:24;;;;;;;1.20;1.10;;;;;;;;;;4966660;28;20292;-84
2022/09/10 13:39:11;;;;;;;0.70;0.70;;;;;;;;;;4979310;28;20208;-84
2022/09/10 13:41:55;;;;;;;2.00;1.60;;;;;;;;;;4966563;28;20303;-84
2022/09/10 13:44:33;;;;;;;1.80;1.70;;;;;;;;;;4978967;28;20231;-84
2022/09/10 13:47:05;;;;;;;1.77;1.37;;;;;;;;;;4979399;28;20199;-83
2022/09/10 13:49:36;;;;;;;1.00;1.00;;;;;;;;;;4996018;28;20226;-84
2022/09/10 13:52:06;;;;;;;1.27;0.80;;;;;;;;;;4979095;28;20240;-84
2022/09/10 13:54:35;;;;;;;0.70;0.70;;;;;;;;;;4966480;28;20250;-84
2022/09/10 13:57:11;;;;;;;1.87;1.60;;;;;;;;;;4978984;28;20247;-84
2022/09/10 13:59:41;;;;;;;3.10;1.73;;;;;;;;;;4964252;28;20227;-85
2022/09/10 14:02:09;;;;;;;2.40;2.30;;;;;;;;;;4974606;28;20693;-84
2022/09/10 14:04:39;;;;;;;7.03;2.43;;;;;;;;;;4978769;28;20228;-84
2022/09/10 14:07:14;;;;;;;2.20;1.97;;;;;;;;;;4978627;28;20244;-84
2022/09/10 14:09:44;;;;;;;1.53;1.27;;;;;;;;;;4978701;28;20212;-84
2022/09/10 14:12:15;;;;;;;2.07;1.53;;;;;;;;;;4995632;28;20200;-83
2022/09/10 14:14:44;;;;;;;0.93;0.93;;;;;;;;;;4978513;28;20196;-84
2022/09/10 14:17:16;;;;;;;1.57;1.17;;;;;;;;;;4979027;28;20196;-84
2022/09/10 14:19:48;;;;;;;4.47;2.80;;;;;;;;;;4978514;28;20227;-84
2022/09/10 14:22:20;;;;;;;4.63;1.63;;;;;;;;;;4983513;28;20207;-84
2022/09/10 14:24:51;;;;;;;1.33;1.23;;;;;;;;;;4978459;28;20244;-84
2022/09/10 14:27:23;;;;;;;5.73;1.33;;;;;;;;;;4978565;28;20292;-84
2022/09/10 14:29:55;;;;;;;1.53;1.20;;;;;;;;;;4978159;28;20262;-84
2022/09/10 14:32:27;;;;;;;2.33;2.13;;;;;;;;;;4978586;28;20200;-84
2022/09/10 14:34:56;;;;;;;3.30;1.80;;;;;;;;;;4978171;28;20207;-84
2022/09/10 14:37:26;;;;;;;1.10;1.00;;;;;;;;;;4978363;28;20231;-84
2022/09/10 14:39:55;;;;;;;1.63;1.53;;;;;;;;;;4978293;28;20221;-84
2022/09/10 14:42:26;;;;;;;0.93;0.93;;;;;;;;;;4978164;28;20230;-84
2022/09/10 14:44:55;;;;;;;2.33;1.33;;;;;;;;;;4965118;28;20255;-84
2022/09/10 14:47:28;;;;;;;1.60;1.50;;;;;;;;;;4977743;28;20239;-84
2022/09/10 14:50:11;;;;;;;1.00;1.00;;;;;;;;;;4977819;28;20216;-84
2022/09/10 14:52:40;;;;;;;0.90;0.90;;;;;;;;;;4977336;28;20285;-84
2022/09/10 14:55:09;;;;;;;2.23;1.20;;;;;;;;;;4967854;28;20297;-84
2022/09/10 14:57:40;;;;;;;1.90;1.00;;;;;;;;;;4989392;28;20204;-84
2022/09/10 15:00:11;;;;;;;1.33;1.23;;;;;;;;;;4970613;28;20339;-84
2022/09/10 15:02:41;;;;;;;4.47;1.30;;;;;;;;;;4977899;28;20229;-84
2022/09/10 15:05:13;;;;;;;1.23;1.17;;;;;;;;;;4977767;28;20265;-84